sensor_id;sensor_type;location;lat;lon;timestamp;pressure;altitude;pressure_sealevel;temperature;humidity
75089;BME280;63673;49.928;8.150;2023-03-16T00:00:11;995.7;;;-0.79;100
75089;BME280;63673;49.928;8.150;2023-03-16T00:01:12;995.72;;;-0.79;100
75089;BME280;63673;49.928;8.150;2023-03-16T00:02:14;995.73;;;-0.79;100
75089;BME280;63673;49.928;8.150;2023-03-16T00:03:16;995.71;;;-0.77;100
75089;BME280;63673;49.928;8.150;2023-03-16T00:04:18;995.76;;;-0.78;100
75089;BME280;63673;49.928;8.150;2023-03-16T00:05:19;995.74;;;-0.76;100
75089;BME280;63673;49.928;8.150;2023-03-16T00:06:21;995.76;;;-0.74;100
75089;BME280;63673;49.928;8.150;2023-03-16T00:07:23;995.74;;;-0.75;100
75089;BME280;63673;49.928;8.150;2023-03-16T00:08:25;995.7;;;-0.75;100
75089;BME280;63673;49.928;8.150;2023-03-16T00:09:26;995.66;;;-0.74;100
75089;BME280;63673;49.928;8.150;2023-03-16T00:10:28;995.7;;;-0.75;100
75089;BME280;63673;49.928;8.150;2023-03-16T00:11:30;995.66;;;-0.74;100
75089;BME280;63673;49.928;8.150;2023-03-16T00:12:32;995.65;;;-0.75;100
75089;BME280;63673;49.928;8.150;2023-03-16T00:13:33;995.68;;;-0.76;100
75089;BME280;63673;49.928;8.150;2023-03-16T00:14:35;995.64;;;-0.76;100
75089;BME280;63673;49.928;8.150;2023-03-16T00:15:37;995.64;;;-0.76;100
75089;BME280;63673;49.928;8.150;2023-03-16T00:16:38;995.65;;;-0.76;100
75089;BME280;63673;49.928;8.150;2023-03-16T00:17:40;995.63;;;-0.76;100
75089;BME280;63673;49.928;8.150;2023-03-16T00:18:42;995.63;;;-0.75;100
75089;BME280;63673;49.928;8.150;2023-03-16T00:19:44;995.67;;;-0.75;100
75089;BME280;63673;49.928;8.150;2023-03-16T00:20:49;995.61;;;-0.74;100
75089;BME280;63673;49.928;8.150;2023-03-16T00:21:47;995.59;;;-0.75;100
75089;BME280;63673;49.928;8.150;2023-03-16T00:22:49;995.64;;;-0.73;100
75089;BME280;63673;49.928;8.150;2023-03-16T00:23:51;995.65;;;-0.73;100
75089;BME280;63673;49.928;8.150;2023-03-16T00:24:53;995.66;;;-0.72;100
75089;BME280;63673;49.928;8.150;2023-03-16T00:25:54;995.63;;;-0.72;100
75089;BME280;63673;49.928;8.150;2023-03-16T00:26:56;995.64;;;-0.72;100
75089;BME280;63673;49.928;8.150;2023-03-16T00:27:58;995.67;;;-0.72;100
75089;BME280;63673;49.928;8.150;2023-03-16T00:28:59;995.59;;;-0.72;100
75089;BME280;63673;49.928;8.150;2023-03-16T00:30:01;995.65;;;-0.72;100
75089;BME280;63673;49.928;8.150;2023-03-16T00:31:03;995.69;;;-0.72;100
75089;BME280;63673;49.928;8.150;2023-03-16T00:32:05;995.68;;;-0.72;100
75089;BME280;63673;49.928;8.150;2023-03-16T00:33:08;995.7;;;-0.74;100
75089;BME280;63673;49.928;8.150;2023-03-16T00:34:13;995.69;;;-0.75;100
75089;BME280;63673;49.928;8.150;2023-03-16T00:35:15;995.65;;;-0.75;100
75089;BME280;63673;49.928;8.150;2023-03-16T00:36:17;995.66;;;-0.76;100
75089;BME280;63673;49.928;8.150;2023-03-16T00:37:19;995.64;;;-0.77;100
75089;BME280;63673;49.928;8.150;2023-03-16T00:38:21;995.64;;;-0.76;100
75089;BME280;63673;49.928;8.150;2023-03-16T00:39:22;995.65;;;-0.77;100
75089;BME280;63673;49.928;8.150;2023-03-16T00:40:23;995.68;;;-0.79;100
75089;BME280;63673;49.928;8.150;2023-03-16T00:41:25;995.6;;;-0.77;100
75089;BME280;63673;49.928;8.150;2023-03-16T00:42:27;995.6;;;-0.78;100
75089;BME280;63673;49.928;8.150;2023-03-16T00:43:29;995.61;;;-0.77;100
75089;BME280;63673;49.928;8.150;2023-03-16T00:44:35;995.57;;;-0.79;100
75089;BME280;63673;49.928;8.150;2023-03-16T00:45:37;995.61;;;-0.79;100
75089;BME280;63673;49.928;8.150;2023-03-16T00:46:39;995.6;;;-0.8;100
75089;BME280;63673;49.928;8.150;2023-03-16T00:47:42;995.59;;;-0.8;100
75089;BME280;63673;49.928;8.150;2023-03-16T00:48:43;995.55;;;-0.81;100
75089;BME280;63673;49.928;8.150;2023-03-16T00:49:44;995.57;;;-0.81;100
75089;BME280;63673;49.928;8.150;2023-03-16T00:50:46;995.55;;;-0.81;100
75089;BME280;63673;49.928;8.150;2023-03-16T00:51:48;995.53;;;-0.81;100
75089;BME280;63673;49.928;8.150;2023-03-16T00:52:49;995.56;;;-0.81;100
75089;BME280;63673;49.928;8.150;2023-03-16T00:53:51;995.53;;;-0.83;100
75089;BME280;63673;49.928;8.150;2023-03-16T00:54:53;995.58;;;-0.82;100
75089;BME280;63673;49.928;8.150;2023-03-16T00:55:55;995.55;;;-0.82;100
75089;BME280;63673;49.928;8.150;2023-03-16T00:56:56;995.62;;;-0.84;100
75089;BME280;63673;49.928;8.150;2023-03-16T00:57:58;995.57;;;-0.82;100
75089;BME280;63673;49.928;8.150;2023-03-16T00:59:00;995.63;;;-0.83;100
75089;BME280;63673;49.928;8.150;2023-03-16T01:00:02;995.67;;;-0.84;100
75089;BME280;63673;49.928;8.150;2023-03-16T01:01:04;995.65;;;-0.84;100
75089;BME280;63673;49.928;8.150;2023-03-16T01:03:33;995.65;;;-0.85;100
75089;BME280;63673;49.928;8.150;2023-03-16T01:04:36;995.72;;;-0.85;100
75089;BME280;63673;49.928;8.150;2023-03-16T01:05:38;995.71;;;-0.85;100
75089;BME280;63673;49.928;8.150;2023-03-16T01:06:40;995.72;;;-0.86;100
75089;BME280;63673;49.928;8.150;2023-03-16T01:07:44;995.68;;;-0.86;100
75089;BME280;63673;49.928;8.150;2023-03-16T01:08:55;995.6;;;-0.87;100
75089;BME280;63673;49.928;8.150;2023-03-16T01:09:57;995.63;;;-0.88;100
75089;BME280;63673;49.928;8.150;2023-03-16T01:11:01;995.68;;;-0.88;100
75089;BME280;63673;49.928;8.150;2023-03-16T01:12:00;995.72;;;-0.88;100
75089;BME280;63673;49.928;8.150;2023-03-16T01:13:02;995.76;;;-0.88;100
75089;BME280;63673;49.928;8.150;2023-03-16T01:14:04;995.75;;;-0.87;100
75089;BME280;63673;49.928;8.150;2023-03-16T01:15:06;995.65;;;-0.86;100
75089;BME280;63673;49.928;8.150;2023-03-16T01:16:08;995.67;;;-0.86;100
75089;BME280;63673;49.928;8.150;2023-03-16T01:17:09;995.63;;;-0.86;100
75089;BME280;63673;49.928;8.150;2023-03-16T01:18:11;995.57;;;-0.86;100
75089;BME280;63673;49.928;8.150;2023-03-16T01:19:13;995.57;;;-0.86;100
75089;BME280;63673;49.928;8.150;2023-03-16T01:20:14;995.62;;;-0.86;100
75089;BME280;63673;49.928;8.150;2023-03-16T01:21:16;995.58;;;-0.87;100
75089;BME280;63673;49.928;8.150;2023-03-16T01:22:18;995.61;;;-0.88;100
75089;BME280;63673;49.928;8.150;2023-03-16T01:23:19;995.57;;;-0.88;100
75089;BME280;63673;49.928;8.150;2023-03-16T01:24:21;995.57;;;-0.9;100
75089;BME280;63673;49.928;8.150;2023-03-16T01:25:23;995.49;;;-0.91;100
75089;BME280;63673;49.928;8.150;2023-03-16T01:26:25;995.57;;;-0.91;100
75089;BME280;63673;49.928;8.150;2023-03-16T01:27:26;995.51;;;-0.92;100
75089;BME280;63673;49.928;8.150;2023-03-16T01:28:29;995.47;;;-0.93;100
75089;BME280;63673;49.928;8.150;2023-03-16T01:29:30;995.47;;;-0.92;100
75089;BME280;63673;49.928;8.150;2023-03-16T01:30:32;995.42;;;-0.93;100
75089;BME280;63673;49.928;8.150;2023-03-16T01:31:33;995.45;;;-0.92;100
75089;BME280;63673;49.928;8.150;2023-03-16T01:32:35;995.43;;;-0.91;100
75089;BME280;63673;49.928;8.150;2023-03-16T01:33:37;995.41;;;-0.91;100
75089;BME280;63673;49.928;8.150;2023-03-16T01:34:39;995.38;;;-0.9;100
75089;BME280;63673;49.928;8.150;2023-03-16T01:35:40;995.39;;;-0.9;100
75089;BME280;63673;49.928;8.150;2023-03-16T01:36:42;995.41;;;-0.89;100
75089;BME280;63673;49.928;8.150;2023-03-16T01:37:44;995.41;;;-0.89;100
75089;BME280;63673;49.928;8.150;2023-03-16T01:38:46;995.44;;;-0.9;100
75089;BME280;63673;49.928;8.150;2023-03-16T01:39:47;995.46;;;-0.9;100
75089;BME280;63673;49.928;8.150;2023-03-16T01:40:49;995.45;;;-0.9;100
75089;BME280;63673;49.928;8.150;2023-03-16T01:41:51;995.44;;;-0.9;100
75089;BME280;63673;49.928;8.150;2023-03-16T01:42:58;995.44;;;-0.9;100
75089;BME280;63673;49.928;8.150;2023-03-16T01:43:54;995.41;;;-0.91;100
75089;BME280;63673;49.928;8.150;2023-03-16T01:44:56;995.39;;;-0.92;100
75089;BME280;63673;49.928;8.150;2023-03-16T01:46:08;995.33;;;-0.92;100
75089;BME280;63673;49.928;8.150;2023-03-16T01:46:59;995.36;;;-0.92;100
75089;BME280;63673;49.928;8.150;2023-03-16T01:48:01;995.3;;;-0.93;100
75089;BME280;63673;49.928;8.150;2023-03-16T01:49:04;995.27;;;-0.92;100
75089;BME280;63673;49.928;8.150;2023-03-16T01:50:05;995.27;;;-0.92;100
75089;BME280;63673;49.928;8.150;2023-03-16T01:51:07;995.25;;;-0.91;100
75089;BME280;63673;49.928;8.150;2023-03-16T01:52:09;995.23;;;-0.9;100
75089;BME280;63673;49.928;8.150;2023-03-16T01:53:10;995.21;;;-0.87;100
75089;BME280;63673;49.928;8.150;2023-03-16T01:54:13;995.2;;;-0.87;100
75089;BME280;63673;49.928;8.150;2023-03-16T01:55:13;995.11;;;-0.83;100
75089;BME280;63673;49.928;8.150;2023-03-16T01:56:15;995.16;;;-0.83;100
75089;BME280;63673;49.928;8.150;2023-03-16T01:57:17;995.15;;;-0.81;100
75089;BME280;63673;49.928;8.150;2023-03-16T01:58:18;995.14;;;-0.79;100
75089;BME280;63673;49.928;8.150;2023-03-16T01:59:20;995.14;;;-0.78;100
75089;BME280;63673;49.928;8.150;2023-03-16T02:00:22;995.18;;;-0.77;100
75089;BME280;63673;49.928;8.150;2023-03-16T02:01:24;995.18;;;-0.77;100
75089;BME280;63673;49.928;8.150;2023-03-16T02:02:26;995.17;;;-0.77;100
75089;BME280;63673;49.928;8.150;2023-03-16T02:03:27;995.18;;;-0.75;100
75089;BME280;63673;49.928;8.150;2023-03-16T02:04:31;995.19;;;-0.77;100
75089;BME280;63673;49.928;8.150;2023-03-16T02:05:31;995.08;;;-0.77;100
75089;BME280;63673;49.928;8.150;2023-03-16T02:06:32;995.04;;;-0.77;100
75089;BME280;63673;49.928;8.150;2023-03-16T02:07:35;995.1;;;-0.77;100
75089;BME280;63673;49.928;8.150;2023-03-16T02:08:36;995.1;;;-0.76;100
75089;BME280;63673;49.928;8.150;2023-03-16T02:09:38;995.07;;;-0.76;100
75089;BME280;63673;49.928;8.150;2023-03-16T02:10:39;995.09;;;-0.77;100
75089;BME280;63673;49.928;8.150;2023-03-16T02:11:41;995.14;;;-0.77;100
75089;BME280;63673;49.928;8.150;2023-03-16T02:12:43;995.11;;;-0.76;100
75089;BME280;63673;49.928;8.150;2023-03-16T02:13:46;995.06;;;-0.77;100
75089;BME280;63673;49.928;8.150;2023-03-16T02:14:47;995.1;;;-0.76;100
75089;BME280;63673;49.928;8.150;2023-03-16T02:15:48;995.08;;;-0.77;100
75089;BME280;63673;49.928;8.150;2023-03-16T02:16:50;995.1;;;-0.76;100
75089;BME280;63673;49.928;8.150;2023-03-16T02:17:51;995.11;;;-0.75;100
75089;BME280;63673;49.928;8.150;2023-03-16T02:18:53;995.13;;;-0.74;100
75089;BME280;63673;49.928;8.150;2023-03-16T02:19:58;995.09;;;-0.71;100
75089;BME280;63673;49.928;8.150;2023-03-16T02:20:59;995.14;;;-0.69;100
75089;BME280;63673;49.928;8.150;2023-03-16T02:22:00;995.1;;;-0.67;100
75089;BME280;63673;49.928;8.150;2023-03-16T02:23:00;995.03;;;-0.66;100
75089;BME280;63673;49.928;8.150;2023-03-16T02:24:02;995.05;;;-0.65;100
75089;BME280;63673;49.928;8.150;2023-03-16T02:25:04;995.02;;;-0.65;100
75089;BME280;63673;49.928;8.150;2023-03-16T02:26:06;994.99;;;-0.64;100
75089;BME280;63673;49.928;8.150;2023-03-16T02:27:09;994.99;;;-0.63;100
75089;BME280;63673;49.928;8.150;2023-03-16T02:28:09;994.97;;;-0.64;100
75089;BME280;63673;49.928;8.150;2023-03-16T02:29:13;994.96;;;-0.64;100
75089;BME280;63673;49.928;8.150;2023-03-16T02:30:12;995;;;-0.64;100
75089;BME280;63673;49.928;8.150;2023-03-16T02:31:14;995;;;-0.64;100
75089;BME280;63673;49.928;8.150;2023-03-16T02:32:15;994.95;;;-0.65;100
75089;BME280;63673;49.928;8.150;2023-03-16T02:33:17;994.97;;;-0.67;100
75089;BME280;63673;49.928;8.150;2023-03-16T02:34:19;994.94;;;-0.67;100
75089;BME280;63673;49.928;8.150;2023-03-16T02:35:21;994.86;;;-0.69;100
75089;BME280;63673;49.928;8.150;2023-03-16T02:36:22;994.84;;;-0.69;100
75089;BME280;63673;49.928;8.150;2023-03-16T02:37:24;994.89;;;-0.71;100
75089;BME280;63673;49.928;8.150;2023-03-16T02:38:26;994.82;;;-0.7;100
75089;BME280;63673;49.928;8.150;2023-03-16T02:39:28;994.82;;;-0.7;100
75089;BME280;63673;49.928;8.150;2023-03-16T02:40:30;994.84;;;-0.71;100
75089;BME280;63673;49.928;8.150;2023-03-16T02:41:31;994.85;;;-0.69;100
75089;BME280;63673;49.928;8.150;2023-03-16T02:42:33;994.82;;;-0.69;100
75089;BME280;63673;49.928;8.150;2023-03-16T02:43:35;994.88;;;-0.69;100
75089;BME280;63673;49.928;8.150;2023-03-16T02:44:36;994.88;;;-0.67;100
75089;BME280;63673;49.928;8.150;2023-03-16T02:45:39;994.87;;;-0.66;100
75089;BME280;63673;49.928;8.150;2023-03-16T02:46:41;994.84;;;-0.68;100
75089;BME280;63673;49.928;8.150;2023-03-16T02:47:42;994.79;;;-0.67;100
75089;BME280;63673;49.928;8.150;2023-03-16T02:48:44;994.8;;;-0.65;100
75089;BME280;63673;49.928;8.150;2023-03-16T02:49:45;994.79;;;-0.64;100
75089;BME280;63673;49.928;8.150;2023-03-16T02:50:47;994.71;;;-0.63;100
75089;BME280;63673;49.928;8.150;2023-03-16T02:51:48;994.68;;;-0.63;100
75089;BME280;63673;49.928;8.150;2023-03-16T02:52:50;994.67;;;-0.62;100
75089;BME280;63673;49.928;8.150;2023-03-16T02:53:52;994.64;;;-0.6;100
75089;BME280;63673;49.928;8.150;2023-03-16T02:54:54;994.59;;;-0.6;100
75089;BME280;63673;49.928;8.150;2023-03-16T02:55:55;994.65;;;-0.59;100
75089;BME280;63673;49.928;8.150;2023-03-16T02:56:57;994.59;;;-0.59;100
75089;BME280;63673;49.928;8.150;2023-03-16T02:57:59;994.56;;;-0.6;100
75089;BME280;63673;49.928;8.150;2023-03-16T02:59:01;994.57;;;-0.59;100
75089;BME280;63673;49.928;8.150;2023-03-16T03:00:02;994.56;;;-0.61;100
75089;BME280;63673;49.928;8.150;2023-03-16T03:01:04;994.63;;;-0.61;100
75089;BME280;63673;49.928;8.150;2023-03-16T03:02:06;994.67;;;-0.61;100
75089;BME280;63673;49.928;8.150;2023-03-16T03:03:08;994.64;;;-0.63;100
75089;BME280;63673;49.928;8.150;2023-03-16T03:04:09;994.69;;;-0.65;100
75089;BME280;63673;49.928;8.150;2023-03-16T03:05:11;994.66;;;-0.66;100
75089;BME280;63673;49.928;8.150;2023-03-16T03:06:13;994.68;;;-0.66;100
75089;BME280;63673;49.928;8.150;2023-03-16T03:07:14;994.74;;;-0.68;100
75089;BME280;63673;49.928;8.150;2023-03-16T03:08:16;994.68;;;-0.68;100
75089;BME280;63673;49.928;8.150;2023-03-16T03:09:18;994.63;;;-0.69;100
75089;BME280;63673;49.928;8.150;2023-03-16T03:10:20;994.62;;;-0.7;100
75089;BME280;63673;49.928;8.150;2023-03-16T03:11:21;994.66;;;-0.71;100
75089;BME280;63673;49.928;8.150;2023-03-16T03:12:23;994.66;;;-0.72;100
75089;BME280;63673;49.928;8.150;2023-03-16T03:13:25;994.66;;;-0.73;100
75089;BME280;63673;49.928;8.150;2023-03-16T03:14:27;994.66;;;-0.75;100
75089;BME280;63673;49.928;8.150;2023-03-16T03:15:28;994.67;;;-0.75;100
75089;BME280;63673;49.928;8.150;2023-03-16T03:16:30;994.65;;;-0.76;100
75089;BME280;63673;49.928;8.150;2023-03-16T03:17:32;994.62;;;-0.77;100
75089;BME280;63673;49.928;8.150;2023-03-16T03:18:33;994.59;;;-0.79;100
75089;BME280;63673;49.928;8.150;2023-03-16T03:19:35;994.58;;;-0.79;100
75089;BME280;63673;49.928;8.150;2023-03-16T03:20:37;994.57;;;-0.8;100
75089;BME280;63673;49.928;8.150;2023-03-16T03:21:40;994.57;;;-0.81;100
75089;BME280;63673;49.928;8.150;2023-03-16T03:22:41;994.6;;;-0.82;100
75089;BME280;63673;49.928;8.150;2023-03-16T03:23:42;994.61;;;-0.83;100
75089;BME280;63673;49.928;8.150;2023-03-16T03:24:44;994.58;;;-0.83;100
75089;BME280;63673;49.928;8.150;2023-03-16T03:25:46;994.61;;;-0.83;100
75089;BME280;63673;49.928;8.150;2023-03-16T03:26:47;994.52;;;-0.84;100
75089;BME280;63673;49.928;8.150;2023-03-16T03:27:50;994.55;;;-0.84;100
75089;BME280;63673;49.928;8.150;2023-03-16T03:28:51;994.61;;;-0.83;100
75089;BME280;63673;49.928;8.150;2023-03-16T03:29:53;994.58;;;-0.83;100
75089;BME280;63673;49.928;8.150;2023-03-16T03:30:54;994.55;;;-0.84;100
75089;BME280;63673;49.928;8.150;2023-03-16T03:31:56;994.56;;;-0.84;100
75089;BME280;63673;49.928;8.150;2023-03-16T03:32:58;994.62;;;-0.84;100
75089;BME280;63673;49.928;8.150;2023-03-16T03:34:00;994.54;;;-0.84;100
75089;BME280;63673;49.928;8.150;2023-03-16T03:35:01;994.6;;;-0.84;100
75089;BME280;63673;49.928;8.150;2023-03-16T03:36:03;994.59;;;-0.86;100
75089;BME280;63673;49.928;8.150;2023-03-16T03:37:05;994.5;;;-0.86;100
75089;BME280;63673;49.928;8.150;2023-03-16T03:38:07;994.53;;;-0.86;100
75089;BME280;63673;49.928;8.150;2023-03-16T03:39:08;994.49;;;-0.86;100
75089;BME280;63673;49.928;8.150;2023-03-16T03:40:11;994.52;;;-0.85;100
75089;BME280;63673;49.928;8.150;2023-03-16T03:41:12;994.5;;;-0.84;100
75089;BME280;63673;49.928;8.150;2023-03-16T03:42:13;994.53;;;-0.84;100
75089;BME280;63673;49.928;8.150;2023-03-16T03:43:15;994.59;;;-0.83;100
75089;BME280;63673;49.928;8.150;2023-03-16T03:44:17;994.55;;;-0.81;100
75089;BME280;63673;49.928;8.150;2023-03-16T03:45:19;994.52;;;-0.81;100
75089;BME280;63673;49.928;8.150;2023-03-16T03:46:20;994.49;;;-0.8;100
75089;BME280;63673;49.928;8.150;2023-03-16T03:47:22;994.45;;;-0.79;100
75089;BME280;63673;49.928;8.150;2023-03-16T03:48:24;994.43;;;-0.79;100
75089;BME280;63673;49.928;8.150;2023-03-16T03:49:26;994.43;;;-0.78;100
75089;BME280;63673;49.928;8.150;2023-03-16T03:50:27;994.44;;;-0.79;100
75089;BME280;63673;49.928;8.150;2023-03-16T03:51:29;994.5;;;-0.78;100
75089;BME280;63673;49.928;8.150;2023-03-16T03:52:31;994.5;;;-0.78;100
75089;BME280;63673;49.928;8.150;2023-03-16T03:53:32;994.49;;;-0.79;100
75089;BME280;63673;49.928;8.150;2023-03-16T03:54:34;994.47;;;-0.79;100
75089;BME280;63673;49.928;8.150;2023-03-16T03:55:36;994.49;;;-0.81;100
75089;BME280;63673;49.928;8.150;2023-03-16T03:56:38;994.51;;;-0.82;100
75089;BME280;63673;49.928;8.150;2023-03-16T03:57:39;994.55;;;-0.83;100
75089;BME280;63673;49.928;8.150;2023-03-16T03:58:41;994.49;;;-0.85;100
75089;BME280;63673;49.928;8.150;2023-03-16T03:59:43;994.47;;;-0.85;100
75089;BME280;63673;49.928;8.150;2023-03-16T04:00:45;994.52;;;-0.88;100
75089;BME280;63673;49.928;8.150;2023-03-16T04:01:46;994.49;;;-0.89;100
75089;BME280;63673;49.928;8.150;2023-03-16T04:02:48;994.49;;;-0.89;100
75089;BME280;63673;49.928;8.150;2023-03-16T04:03:50;994.52;;;-0.91;100
75089;BME280;63673;49.928;8.150;2023-03-16T04:04:52;994.48;;;-0.91;100
75089;BME280;63673;49.928;8.150;2023-03-16T04:05:54;994.48;;;-0.91;100
75089;BME280;63673;49.928;8.150;2023-03-16T04:06:55;994.52;;;-0.9;100
75089;BME280;63673;49.928;8.150;2023-03-16T04:07:57;994.45;;;-0.88;100
75089;BME280;63673;49.928;8.150;2023-03-16T04:08:58;994.38;;;-0.87;100
75089;BME280;63673;49.928;8.150;2023-03-16T04:10:02;994.41;;;-0.87;100
75089;BME280;63673;49.928;8.150;2023-03-16T04:11:02;994.43;;;-0.85;100
75089;BME280;63673;49.928;8.150;2023-03-16T04:12:04;994.45;;;-0.82;100
75089;BME280;63673;49.928;8.150;2023-03-16T04:13:05;994.45;;;-0.81;100
75089;BME280;63673;49.928;8.150;2023-03-16T04:14:07;994.43;;;-0.81;100
75089;BME280;63673;49.928;8.150;2023-03-16T04:15:09;994.39;;;-0.79;100
75089;BME280;63673;49.928;8.150;2023-03-16T04:16:11;994.41;;;-0.79;100
75089;BME280;63673;49.928;8.150;2023-03-16T04:17:12;994.39;;;-0.77;100
75089;BME280;63673;49.928;8.150;2023-03-16T04:18:14;994.39;;;-0.77;100
75089;BME280;63673;49.928;8.150;2023-03-16T04:19:16;994.42;;;-0.77;100
75089;BME280;63673;49.928;8.150;2023-03-16T04:20:18;994.42;;;-0.76;100
75089;BME280;63673;49.928;8.150;2023-03-16T04:21:20;994.39;;;-0.76;100
75089;BME280;63673;49.928;8.150;2023-03-16T04:22:21;994.44;;;-0.77;100
75089;BME280;63673;49.928;8.150;2023-03-16T04:23:23;994.42;;;-0.76;100
75089;BME280;63673;49.928;8.150;2023-03-16T04:24:24;994.41;;;-0.77;100
75089;BME280;63673;49.928;8.150;2023-03-16T04:25:26;994.45;;;-0.77;100
75089;BME280;63673;49.928;8.150;2023-03-16T04:26:28;994.45;;;-0.77;100
75089;BME280;63673;49.928;8.150;2023-03-16T04:27:30;994.45;;;-0.77;100
75089;BME280;63673;49.928;8.150;2023-03-16T04:28:31;994.47;;;-0.79;100
75089;BME280;63673;49.928;8.150;2023-03-16T04:29:33;994.46;;;-0.79;100
75089;BME280;63673;49.928;8.150;2023-03-16T04:30:35;994.35;;;-0.79;100
75089;BME280;63673;49.928;8.150;2023-03-16T04:31:37;994.45;;;-0.8;100
75089;BME280;63673;49.928;8.150;2023-03-16T04:32:39;994.4;;;-0.8;100
75089;BME280;63673;49.928;8.150;2023-03-16T04:33:41;994.38;;;-0.81;100
75089;BME280;63673;49.928;8.150;2023-03-16T04:34:42;994.39;;;-0.82;100
75089;BME280;63673;49.928;8.150;2023-03-16T04:35:44;994.39;;;-0.82;100
75089;BME280;63673;49.928;8.150;2023-03-16T04:36:45;994.36;;;-0.82;100
75089;BME280;63673;49.928;8.150;2023-03-16T04:37:47;994.37;;;-0.83;100
75089;BME280;63673;49.928;8.150;2023-03-16T04:38:49;994.37;;;-0.83;100
75089;BME280;63673;49.928;8.150;2023-03-16T04:39:50;994.34;;;-0.84;100
75089;BME280;63673;49.928;8.150;2023-03-16T04:40:52;994.33;;;-0.84;100
75089;BME280;63673;49.928;8.150;2023-03-16T04:41:54;994.36;;;-0.84;100
75089;BME280;63673;49.928;8.150;2023-03-16T04:42:56;994.31;;;-0.84;100
75089;BME280;63673;49.928;8.150;2023-03-16T04:43:57;994.3;;;-0.85;100
75089;BME280;63673;49.928;8.150;2023-03-16T04:44:59;994.31;;;-0.84;100
75089;BME280;63673;49.928;8.150;2023-03-16T04:46:01;994.33;;;-0.86;100
75089;BME280;63673;49.928;8.150;2023-03-16T04:47:03;994.32;;;-0.87;100
75089;BME280;63673;49.928;8.150;2023-03-16T04:48:04;994.32;;;-0.87;100
75089;BME280;63673;49.928;8.150;2023-03-16T04:49:06;994.33;;;-0.87;100
75089;BME280;63673;49.928;8.150;2023-03-16T04:50:08;994.3;;;-0.88;100
75089;BME280;63673;49.928;8.150;2023-03-16T04:51:10;994.32;;;-0.87;100
75089;BME280;63673;49.928;8.150;2023-03-16T04:52:11;994.34;;;-0.88;100
75089;BME280;63673;49.928;8.150;2023-03-16T04:53:13;994.34;;;-0.89;100
75089;BME280;63673;49.928;8.150;2023-03-16T04:54:15;994.3;;;-0.89;100
75089;BME280;63673;49.928;8.150;2023-03-16T04:55:17;994.31;;;-0.91;100
75089;BME280;63673;49.928;8.150;2023-03-16T04:56:18;994.38;;;-0.91;100
75089;BME280;63673;49.928;8.150;2023-03-16T04:57:20;994.38;;;-0.93;100
75089;BME280;63673;49.928;8.150;2023-03-16T04:58:22;994.38;;;-0.94;100
75089;BME280;63673;49.928;8.150;2023-03-16T04:59:23;994.41;;;-0.95;100
75089;BME280;63673;49.928;8.150;2023-03-16T05:00:25;994.35;;;-0.96;100
75089;BME280;63673;49.928;8.150;2023-03-16T05:01:27;994.34;;;-0.98;100
75089;BME280;63673;49.928;8.150;2023-03-16T05:02:29;994.36;;;-0.99;100
75089;BME280;63673;49.928;8.150;2023-03-16T05:03:30;994.36;;;-1;100
75089;BME280;63673;49.928;8.150;2023-03-16T05:04:32;994.41;;;-1.01;100
75089;BME280;63673;49.928;8.150;2023-03-16T05:05:34;994.37;;;-1.03;100
75089;BME280;63673;49.928;8.150;2023-03-16T05:06:36;994.39;;;-1.03;100
75089;BME280;63673;49.928;8.150;2023-03-16T05:07:37;994.37;;;-1.05;100
75089;BME280;63673;49.928;8.150;2023-03-16T05:08:39;994.44;;;-1.05;100
75089;BME280;63673;49.928;8.150;2023-03-16T05:09:41;994.39;;;-1.04;100
75089;BME280;63673;49.928;8.150;2023-03-16T05:10:42;994.35;;;-1.04;100
75089;BME280;63673;49.928;8.150;2023-03-16T05:11:44;994.4;;;-1.04;100
75089;BME280;63673;49.928;8.150;2023-03-16T05:12:46;994.34;;;-1.03;100
75089;BME280;63673;49.928;8.150;2023-03-16T05:13:48;994.31;;;-1.03;100
75089;BME280;63673;49.928;8.150;2023-03-16T05:14:49;994.31;;;-1.03;100
75089;BME280;63673;49.928;8.150;2023-03-16T05:15:51;994.23;;;-1.01;100
75089;BME280;63673;49.928;8.150;2023-03-16T05:16:53;994.23;;;-1.02;100
75089;BME280;63673;49.928;8.150;2023-03-16T05:17:55;994.21;;;-1.02;100
75089;BME280;63673;49.928;8.150;2023-03-16T05:18:57;994.19;;;-1.01;100
75089;BME280;63673;49.928;8.150;2023-03-16T05:19:58;994.21;;;-1.01;100
75089;BME280;63673;49.928;8.150;2023-03-16T05:21:00;994.19;;;-1.03;100
75089;BME280;63673;49.928;8.150;2023-03-16T05:22:02;994.2;;;-1.04;100
75089;BME280;63673;49.928;8.150;2023-03-16T05:23:03;994.15;;;-1.04;100
75089;BME280;63673;49.928;8.150;2023-03-16T05:24:05;994.15;;;-1.04;100
75089;BME280;63673;49.928;8.150;2023-03-16T05:25:07;994.18;;;-1.03;100
75089;BME280;63673;49.928;8.150;2023-03-16T05:26:09;994.17;;;-1.04;100
75089;BME280;63673;49.928;8.150;2023-03-16T05:27:10;994.14;;;-1.04;100
75089;BME280;63673;49.928;8.150;2023-03-16T05:28:12;994.15;;;-1.07;100
75089;BME280;63673;49.928;8.150;2023-03-16T05:29:14;994.13;;;-1.06;100
75089;BME280;63673;49.928;8.150;2023-03-16T05:30:16;994.12;;;-1.08;100
75089;BME280;63673;49.928;8.150;2023-03-16T05:31:17;994.09;;;-1.07;100
75089;BME280;63673;49.928;8.150;2023-03-16T05:32:19;994.15;;;-1.07;100
75089;BME280;63673;49.928;8.150;2023-03-16T05:33:21;994.08;;;-1.08;100
75089;BME280;63673;49.928;8.150;2023-03-16T05:34:22;994.07;;;-1.09;100
75089;BME280;63673;49.928;8.150;2023-03-16T05:35:24;994.11;;;-1.1;100
75089;BME280;63673;49.928;8.150;2023-03-16T05:36:35;994.09;;;-1.11;100
75089;BME280;63673;49.928;8.150;2023-03-16T05:37:39;994.04;;;-1.1;100
75089;BME280;63673;49.928;8.150;2023-03-16T05:38:41;994.05;;;-1.12;100
75089;BME280;63673;49.928;8.150;2023-03-16T05:39:42;994.05;;;-1.12;100
75089;BME280;63673;49.928;8.150;2023-03-16T05:40:44;994.05;;;-1.12;100
75089;BME280;63673;49.928;8.150;2023-03-16T05:41:46;994.05;;;-1.13;100
75089;BME280;63673;49.928;8.150;2023-03-16T05:42:48;994.04;;;-1.12;100
75089;BME280;63673;49.928;8.150;2023-03-16T05:43:49;994.06;;;-1.13;100
75089;BME280;63673;49.928;8.150;2023-03-16T05:44:51;994.03;;;-1.13;100
75089;BME280;63673;49.928;8.150;2023-03-16T05:45:53;994.02;;;-1.14;100
75089;BME280;63673;49.928;8.150;2023-03-16T05:46:54;994.05;;;-1.14;100
75089;BME280;63673;49.928;8.150;2023-03-16T05:47:56;994.03;;;-1.15;100